createdAt,value
2023-06-30T00:02:00.665Z,26.19
2023-06-30T00:04:31.475Z,26.17
2023-06-30T00:06:59.168Z,26.08
2023-06-30T00:09:26.711Z,25.43
2023-06-30T00:11:55.012Z,25.52
2023-06-30T00:14:22.871Z,26.01
2023-06-30T00:16:51.026Z,26.06
2023-06-30T00:19:18.716Z,26.14
2023-06-30T00:21:46.269Z,26.04
2023-06-30T00:24:14.314Z,25.97
2023-06-30T00:26:41.894Z,26.01
2023-06-30T00:29:10.072Z,25.97
2023-06-30T00:31:37.777Z,25.80
2023-06-30T00:34:05.294Z,25.79
2023-06-30T00:36:32.677Z,25.77
2023-06-30T00:39:00.701Z,25.51
2023-06-30T00:41:28.135Z,25.57
2023-06-30T00:43:57.041Z,25.63
2023-06-30T00:46:24.470Z,25.71
2023-06-30T00:48:51.792Z,25.84
2023-06-30T00:51:19.092Z,25.92
2023-06-30T00:53:46.534Z,25.96
2023-06-30T00:56:14.042Z,26.03
2023-06-30T00:58:41.388Z,25.98
2023-06-30T01:01:17.155Z,25.89
2023-06-30T01:03:48.471Z,25.84
2023-06-30T01:06:17.685Z,26.00
2023-06-30T01:08:56.811Z,25.96
2023-06-30T01:11:25.712Z,26.10
2023-06-30T01:13:54.635Z,25.80
2023-06-30T01:16:24.001Z,25.73
2023-06-30T01:18:54.216Z,25.95
2023-06-30T01:21:22.973Z,26.22
2023-06-30T01:23:55.689Z,26.05
2023-06-30T01:26:23.401Z,26.05
2023-06-30T01:28:52.298Z,25.97
2023-06-30T01:31:20.704Z,25.64
2023-06-30T01:33:48.179Z,25.78
2023-06-30T01:36:15.555Z,25.80
2023-06-30T01:38:44.128Z,25.89
2023-06-30T01:41:11.606Z,26.06
2023-06-30T01:43:40.114Z,26.06
2023-06-30T01:46:07.519Z,26.18
2023-06-30T01:48:35.002Z,26.20
2023-06-30T01:51:02.424Z,26.07
2023-06-30T01:53:29.771Z,25.86
2023-06-30T01:55:57.073Z,25.63
2023-06-30T01:58:24.411Z,25.45
2023-06-30T02:00:51.812Z,25.47
2023-06-30T02:03:19.303Z,25.62
2023-06-30T02:05:50.219Z,25.71
2023-06-30T02:08:17.724Z,25.92
2023-06-30T02:10:45.109Z,26.01
2023-06-30T02:13:12.549Z,25.98
2023-06-30T02:15:39.921Z,25.98
2023-06-30T02:18:07.355Z,26.03
2023-06-30T02:20:36.382Z,26.14
2023-06-30T02:23:04.275Z,26.34
2023-06-30T02:25:31.576Z,26.54
2023-06-30T02:27:59.062Z,26.37
2023-06-30T02:30:26.403Z,26.30
2023-06-30T02:32:54.646Z,26.49
2023-06-30T02:35:22.276Z,26.62
2023-06-30T02:37:49.693Z,26.63
2023-06-30T02:42:56.950Z,22.79
2023-06-30T02:45:24.560Z,23.98
2023-06-30T02:47:52.063Z,24.49
2023-06-30T02:50:23.569Z,24.78
2023-06-30T02:52:53.194Z,24.73
2023-06-30T02:55:20.643Z,24.84
2023-06-30T02:57:48.556Z,25.18
2023-06-30T03:00:16.696Z,25.19
2023-06-30T03:02:44.256Z,25.26
2023-06-30T03:05:11.808Z,25.43
2023-06-30T03:07:39.918Z,25.37
2023-06-30T03:10:08.646Z,25.38
2023-06-30T03:12:36.718Z,25.59
2023-06-30T03:15:05.250Z,25.72
2023-06-30T03:17:33.372Z,26.07
2023-06-30T03:20:01.254Z,26.19
2023-06-30T03:22:28.616Z,26.16
2023-06-30T03:24:58.705Z,26.07
2023-06-30T03:27:26.146Z,26.37
2023-06-30T03:29:53.548Z,26.46
2023-06-30T03:32:20.939Z,26.42
2023-06-30T03:34:48.361Z,26.38
2023-06-30T03:37:15.669Z,26.56
2023-06-30T03:39:43.159Z,26.87
2023-06-30T03:42:10.592Z,26.62
2023-06-30T03:44:38.935Z,26.77
2023-06-30T03:47:06.344Z,26.97
2023-06-30T03:49:33.620Z,27.03
2023-06-30T03:52:01.965Z,27.31
2023-06-30T03:54:29.286Z,27.49
2023-06-30T03:56:58.264Z,27.48
2023-06-30T03:59:25.678Z,27.76
2023-06-30T04:01:53.955Z,28.04
2023-06-30T04:04:22.249Z,28.30
2023-06-30T04:06:49.781Z,28.47
2023-06-30T04:09:17.207Z,28.73
2023-06-30T04:11:44.526Z,29.00
2023-06-30T04:14:11.841Z,29.44
2023-06-30T04:16:39.278Z,29.59
2023-06-30T04:19:06.820Z,29.92
2023-06-30T04:21:34.156Z,29.88
2023-06-30T04:24:01.485Z,29.87
2023-06-30T04:26:29.776Z,29.80
2023-06-30T04:28:57.680Z,29.81
2023-06-30T04:31:27.964Z,29.69
2023-06-30T04:33:55.892Z,29.46
2023-06-30T04:36:23.313Z,29.42
2023-06-30T04:38:51.170Z,29.09
2023-06-30T04:41:19.325Z,28.96
2023-06-30T04:43:46.629Z,28.86
2023-06-30T04:46:13.985Z,28.75
2023-06-30T04:48:41.350Z,28.77
2023-06-30T04:51:08.703Z,28.83
2023-06-30T04:53:36.889Z,28.68
2023-06-30T04:56:04.407Z,28.65
2023-06-30T04:58:31.793Z,28.82
2023-06-30T05:00:59.195Z,28.90
2023-06-30T05:03:26.636Z,29.08
2023-06-30T05:05:54.024Z,29.16
2023-06-30T05:08:21.708Z,29.24
2023-06-30T05:10:49.231Z,29.75
2023-06-30T05:13:16.613Z,30.11
2023-06-30T05:15:44.285Z,30.45
2023-06-30T05:18:12.018Z,30.58
2023-06-30T05:20:40.529Z,30.82
2023-06-30T05:23:07.834Z,31.13
2023-06-30T05:25:35.760Z,31.38
2023-06-30T05:28:03.904Z,31.54
2023-06-30T05:30:31.305Z,31.66
2023-06-30T05:32:58.649Z,31.90
2023-06-30T05:35:26.066Z,31.94
2023-06-30T05:37:53.368Z,32.29
2023-06-30T05:40:20.826Z,32.48
2023-06-30T05:42:48.137Z,32.44
2023-06-30T05:45:15.476Z,32.77
2023-06-30T05:47:42.815Z,32.84
2023-06-30T05:50:10.396Z,32.77
2023-06-30T05:52:37.939Z,32.68
2023-06-30T05:55:05.844Z,32.44
2023-06-30T05:57:34.707Z,32.44
2023-06-30T06:00:02.168Z,32.44
2023-06-30T06:02:39.408Z,32.56
2023-06-30T06:05:07.272Z,32.96
2023-06-30T06:07:35.687Z,33.06
2023-06-30T06:10:03.142Z,32.83
2023-06-30T06:12:30.853Z,33.09
2023-06-30T06:14:58.216Z,33.05
2023-06-30T06:17:25.557Z,32.98
2023-06-30T06:19:53.198Z,33.16
2023-06-30T06:22:20.550Z,33.61
2023-06-30T06:24:47.845Z,33.68
2023-06-30T06:27:15.243Z,33.57
2023-06-30T06:29:42.540Z,33.84
2023-06-30T06:32:09.986Z,34.27
2023-06-30T06:34:37.369Z,34.69
2023-06-30T06:37:04.996Z,34.93
2023-06-30T06:39:32.340Z,34.91
2023-06-30T06:41:59.663Z,34.84
2023-06-30T06:44:27.010Z,34.95
2023-06-30T06:47:32.925Z,34.95
2023-06-30T06:50:01.947Z,35.28
2023-06-30T06:52:29.367Z,35.44
2023-06-30T06:54:56.697Z,35.34
2023-06-30T06:57:24.017Z,35.33
2023-06-30T06:59:51.325Z,35.61
2023-06-30T07:02:18.685Z,35.53
2023-06-30T07:04:46.057Z,35.90
2023-06-30T07:07:13.429Z,36.00
2023-06-30T07:09:40.815Z,36.24
2023-06-30T07:12:08.631Z,36.60
2023-06-30T07:14:36.937Z,36.90
2023-06-30T07:17:04.628Z,36.56
2023-06-30T07:19:32.021Z,36.56
2023-06-30T07:21:59.295Z,36.70
2023-06-30T07:24:26.717Z,36.97
2023-06-30T07:26:55.256Z,37.29
2023-06-30T07:29:22.785Z,37.67
2023-06-30T07:31:50.372Z,37.96
2023-06-30T07:34:20.319Z,38.17
2023-06-30T07:36:47.699Z,38.13
2023-06-30T07:39:15.099Z,38.04
2023-06-30T07:41:42.580Z,38.69
2023-06-30T07:44:12.917Z,38.86
2023-06-30T07:46:40.239Z,38.30
2023-06-30T07:49:07.644Z,38.22
2023-06-30T07:51:35.026Z,37.58
2023-06-30T07:54:06.365Z,37.37
2023-06-30T07:56:33.908Z,37.53
2023-06-30T07:59:01.260Z,38.03
2023-06-30T08:01:28.561Z,38.52
2023-06-30T08:03:56.209Z,38.84
2023-06-30T08:06:23.924Z,38.38
2023-06-30T08:08:51.535Z,38.05
2023-06-30T08:11:18.888Z,38.36
2023-06-30T08:13:46.188Z,38.65
2023-06-30T08:16:14.162Z,38.93
2023-06-30T08:18:51.315Z,38.92
2023-06-30T08:21:20.030Z,38.70
2023-06-30T08:23:47.631Z,38.66
2023-06-30T08:26:15.837Z,38.56
2023-06-30T08:28:43.340Z,38.89
2023-06-30T08:31:10.724Z,39.04
2023-06-30T08:33:40.947Z,39.43
2023-06-30T08:36:08.719Z,39.67
2023-06-30T08:38:36.064Z,39.94
2023-06-30T08:41:04.550Z,39.91
2023-06-30T08:43:32.440Z,39.75
2023-06-30T08:46:02.490Z,39.54
2023-06-30T08:48:30.563Z,39.69
2023-06-30T08:50:59.555Z,39.85
2023-06-30T08:53:28.777Z,40.09
2023-06-30T08:55:57.168Z,40.21
2023-06-30T08:58:26.750Z,40.37
2023-06-30T09:00:54.974Z,40.68
2023-06-30T09:03:22.894Z,40.52
2023-06-30T09:05:56.058Z,40.40
2023-06-30T09:08:26.961Z,40.68
2023-06-30T09:10:57.386Z,40.86
2023-06-30T09:13:25.014Z,40.63
2023-06-30T09:15:54.888Z,40.48
2023-06-30T09:18:22.304Z,40.63
2023-06-30T09:20:49.632Z,40.69
2023-06-30T09:23:17.915Z,40.72
2023-06-30T09:25:45.921Z,40.78
2023-06-30T09:28:15.696Z,40.73
2023-06-30T09:30:47.558Z,40.92
2023-06-30T09:33:16.392Z,41.16
2023-06-30T09:35:46.292Z,40.96
2023-06-30T09:38:18.924Z,40.92
2023-06-30T09:40:48.286Z,40.79
2023-06-30T09:43:26.696Z,40.26
2023-06-30T09:46:01.473Z,39.77
2023-06-30T09:48:35.790Z,39.63
2023-06-30T09:51:03.204Z,39.81
2023-06-30T09:53:39.503Z,40.55
2023-06-30T09:56:07.826Z,41.01
2023-06-30T09:58:37.194Z,41.12
2023-06-30T10:01:04.772Z,40.93
2023-06-30T10:03:33.198Z,41.12
2023-06-30T10:06:00.632Z,41.39
2023-06-30T10:08:27.940Z,41.86
2023-06-30T10:10:55.744Z,42.06
2023-06-30T10:13:23.488Z,42.13
2023-06-30T10:15:50.858Z,42.19
2023-06-30T10:18:18.876Z,42.24
2023-06-30T10:20:49.513Z,42.39
2023-06-30T10:23:20.248Z,42.33
2023-06-30T10:25:47.940Z,42.15
2023-06-30T10:28:15.871Z,42.06
2023-06-30T10:30:43.298Z,41.87
2023-06-30T10:33:10.714Z,41.67
2023-06-30T10:35:38.934Z,40.72
2023-06-30T10:38:06.435Z,40.25
2023-06-30T10:40:34.162Z,39.92
2023-06-30T10:43:01.570Z,39.93
2023-06-30T10:45:30.403Z,40.07
2023-06-30T10:47:58.854Z,40.20
2023-06-30T10:50:26.311Z,40.42
2023-06-30T10:52:54.696Z,40.82
2023-06-30T10:55:23.870Z,40.85
2023-06-30T10:57:52.938Z,40.97
2023-06-30T11:00:26.694Z,41.11
2023-06-30T11:03:00.832Z,41.42
2023-06-30T11:05:29.909Z,41.80
2023-06-30T11:08:04.712Z,41.84
2023-06-30T11:10:36.131Z,42.06
2023-06-30T11:13:05.104Z,42.24
2023-06-30T11:15:46.330Z,42.34
2023-06-30T11:18:22.377Z,42.54
2023-06-30T11:20:59.656Z,42.57
2023-06-30T11:23:37.932Z,42.13
2023-06-30T11:26:15.483Z,41.68
2023-06-30T11:28:43.578Z,41.05
2023-06-30T11:31:14.276Z,40.90
2023-06-30T11:33:42.384Z,41.08
2023-06-30T11:36:16.513Z,41.13
2023-06-30T11:38:47.707Z,40.99
2023-06-30T11:41:21.889Z,40.89
2023-06-30T11:43:55.034Z,41.09
2023-06-30T11:46:22.877Z,41.28
2023-06-30T11:48:50.675Z,41.06
2023-06-30T11:51:18.411Z,40.82
2023-06-30T11:53:49.090Z,40.68
2023-06-30T11:56:19.178Z,40.54
2023-06-30T11:58:53.360Z,40.55
2023-06-30T12:01:23.481Z,40.19
2023-06-30T12:04:01.154Z,39.92
2023-06-30T12:06:29.463Z,39.75
2023-06-30T12:08:59.753Z,39.53
2023-06-30T12:11:29.700Z,38.88
2023-06-30T12:13:57.013Z,38.47
2023-06-30T12:16:27.768Z,38.20
2023-06-30T12:18:55.035Z,38.04
2023-06-30T12:21:22.493Z,38.23
2023-06-30T12:23:49.834Z,38.35
2023-06-30T12:26:17.177Z,38.55
2023-06-30T12:28:44.529Z,38.80
2023-06-30T12:31:11.882Z,38.84
2023-06-30T12:33:39.347Z,39.03
2023-06-30T12:36:07.537Z,38.89
2023-06-30T12:38:34.990Z,38.63
2023-06-30T12:41:02.863Z,38.41
2023-06-30T12:43:31.997Z,38.17
2023-06-30T12:45:59.446Z,38.13
2023-06-30T12:48:26.796Z,37.78
2023-06-30T12:50:57.368Z,37.57
2023-06-30T12:53:25.055Z,37.39
2023-06-30T12:55:53.949Z,37.27
2023-06-30T12:58:21.370Z,37.06
2023-06-30T13:00:48.752Z,36.69
2023-06-30T13:03:16.303Z,36.36
2023-06-30T13:05:43.801Z,35.86
2023-06-30T13:08:11.162Z,35.34
2023-06-30T13:10:38.536Z,34.69
2023-06-30T13:13:05.857Z,34.00
2023-06-30T13:15:33.486Z,33.48
2023-06-30T13:18:00.868Z,33.17
2023-06-30T13:20:28.290Z,32.92
2023-06-30T13:23:10.123Z,32.48
2023-06-30T13:25:39.908Z,32.14
2023-06-30T13:28:07.253Z,31.88
2023-06-30T13:30:35.905Z,31.77
2023-06-30T13:33:03.289Z,31.51
2023-06-30T13:35:32.066Z,31.56
2023-06-30T13:37:59.396Z,31.45
2023-06-30T13:40:26.973Z,31.34
2023-06-30T13:42:55.196Z,31.29
2023-06-30T13:45:22.584Z,31.38
2023-06-30T13:47:50.224Z,31.12
2023-06-30T13:50:17.610Z,30.83
2023-06-30T13:52:45.002Z,30.70
2023-06-30T13:55:12.434Z,30.86
2023-06-30T13:57:39.800Z,30.81
2023-06-30T14:00:07.734Z,30.69
2023-06-30T14:02:35.196Z,30.76
2023-06-30T14:05:02.986Z,30.83
2023-06-30T14:07:30.544Z,30.92
2023-06-30T14:09:59.363Z,31.14
2023-06-30T14:12:26.737Z,31.20
2023-06-30T14:14:54.357Z,31.27
2023-06-30T14:17:21.793Z,31.17
2023-06-30T14:19:51.378Z,31.39
2023-06-30T14:22:19.771Z,31.48
2023-06-30T14:24:47.136Z,31.56
2023-06-30T14:27:14.615Z,31.45
2023-06-30T14:29:43.668Z,31.70
2023-06-30T14:32:11.216Z,31.93
2023-06-30T14:34:39.539Z,31.97
2023-06-30T14:37:06.893Z,31.80
2023-06-30T14:39:34.199Z,31.80
2023-06-30T14:42:02.957Z,31.66
2023-06-30T14:44:30.504Z,31.62
2023-06-30T14:46:59.894Z,31.36
2023-06-30T14:49:27.749Z,31.59
2023-06-30T14:51:55.127Z,31.29
2023-06-30T14:54:22.478Z,31.29
2023-06-30T14:56:49.967Z,31.39
2023-06-30T15:00:08.547Z,28.14
2023-06-30T15:02:36.231Z,29.43
2023-06-30T15:05:04.628Z,29.93
2023-06-30T15:07:32.923Z,30.06
2023-06-30T15:10:01.254Z,30.11
2023-06-30T15:12:28.616Z,30.41
2023-06-30T15:14:56.003Z,30.79
2023-06-30T15:17:23.571Z,30.92
2023-06-30T15:19:51.323Z,31.03
2023-06-30T15:22:18.956Z,31.07
2023-06-30T15:24:46.353Z,31.07
2023-06-30T15:27:13.742Z,30.92
2023-06-30T15:29:41.178Z,31.06
2023-06-30T15:32:08.682Z,31.12
2023-06-30T15:34:36.069Z,31.60
2023-06-30T15:37:04.772Z,31.74
2023-06-30T15:39:32.681Z,31.68
2023-06-30T15:42:00.271Z,31.99
2023-06-30T15:44:27.641Z,32.07
2023-06-30T15:46:54.977Z,32.09
2023-06-30T15:49:22.707Z,31.54
2023-06-30T15:51:53.162Z,31.86
2023-06-30T15:54:20.604Z,32.08
2023-06-30T15:56:48.227Z,31.94
2023-06-30T15:59:15.609Z,31.62
2023-06-30T16:01:44.198Z,31.91
2023-06-30T16:04:11.689Z,32.08
2023-06-30T16:06:39.158Z,32.01
2023-06-30T16:09:06.594Z,31.95
2023-06-30T16:11:33.905Z,32.12
2023-06-30T16:14:01.227Z,32.31
2023-06-30T16:16:30.016Z,32.39
2023-06-30T16:18:57.463Z,32.32
2023-06-30T16:21:24.916Z,32.39
2023-06-30T16:23:52.316Z,32.40
2023-06-30T16:26:22.561Z,32.58
2023-06-30T16:28:49.918Z,32.55
2023-06-30T16:31:17.516Z,32.56
2023-06-30T16:33:44.889Z,32.46
2023-06-30T16:36:12.301Z,32.64
2023-06-30T16:38:42.346Z,32.42
2023-06-30T16:41:09.688Z,32.31
2023-06-30T16:43:37.036Z,32.29
2023-06-30T16:46:04.389Z,32.34
2023-06-30T16:48:31.892Z,32.35
2023-06-30T16:51:02.181Z,32.26
2023-06-30T16:53:29.559Z,32.46
2023-06-30T16:55:57.331Z,32.63
2023-06-30T16:58:26.377Z,32.71
2023-06-30T17:00:54.188Z,32.80
2023-06-30T17:03:21.740Z,32.96
2023-06-30T17:05:49.656Z,33.12
2023-06-30T17:08:17.273Z,33.11
2023-06-30T17:10:46.742Z,33.51
2023-06-30T17:13:14.381Z,33.35
2023-06-30T17:15:41.722Z,33.09
2023-06-30T17:18:09.344Z,33.15
2023-06-30T17:20:37.117Z,32.95
2023-06-30T17:23:06.595Z,32.85
2023-06-30T17:25:33.951Z,32.62
2023-06-30T17:28:01.440Z,32.53
2023-06-30T17:30:28.820Z,32.52
2023-06-30T17:32:56.192Z,32.52
2023-06-30T17:35:24.829Z,32.47
2023-06-30T17:37:52.907Z,32.57
2023-06-30T17:40:21.410Z,32.59
2023-06-30T17:42:48.805Z,32.31
2023-06-30T17:45:16.318Z,32.09
2023-06-30T17:47:43.745Z,32.05
2023-06-30T17:50:11.406Z,32.26
2023-06-30T17:52:38.793Z,32.16
2023-06-30T17:55:06.432Z,32.04
2023-06-30T17:57:33.834Z,32.05
2023-06-30T18:00:01.236Z,32.39
2023-06-30T18:02:28.603Z,31.58
2023-06-30T18:04:56.111Z,31.01
2023-06-30T18:07:23.690Z,30.81
2023-06-30T18:09:51.721Z,30.77
2023-06-30T18:12:19.103Z,30.87
2023-06-30T18:14:46.394Z,30.69
2023-06-30T18:17:16.257Z,30.63
2023-06-30T18:19:43.705Z,30.68
2023-06-30T18:22:11.183Z,30.62
2023-06-30T18:24:38.629Z,30.46
2023-06-30T18:27:06.594Z,30.39
2023-06-30T18:29:33.939Z,30.16
2023-06-30T18:32:01.520Z,30.10
2023-06-30T18:34:29.025Z,29.95
2023-06-30T18:36:56.416Z,29.95
2023-06-30T18:39:23.929Z,29.90
2023-06-30T18:41:51.354Z,29.96
2023-06-30T18:44:18.641Z,30.03
2023-06-30T18:46:46.073Z,29.97
2023-06-30T18:49:13.591Z,29.75
2023-06-30T18:51:43.761Z,29.63
2023-06-30T18:54:11.294Z,29.63
2023-06-30T18:56:39.053Z,29.49
2023-06-30T18:59:06.711Z,29.50
2023-06-30T19:01:34.197Z,29.44
2023-06-30T19:04:01.825Z,28.98
2023-06-30T19:06:29.402Z,28.40
2023-06-30T19:08:57.216Z,28.45
2023-06-30T19:11:24.730Z,28.44
2023-06-30T19:13:52.288Z,28.77
2023-06-30T19:16:19.918Z,28.76
2023-06-30T19:18:47.515Z,28.65
2023-06-30T19:21:15.061Z,28.68
2023-06-30T19:23:42.563Z,28.68
2023-06-30T19:26:10.531Z,28.64
2023-06-30T19:28:40.252Z,28.70
2023-06-30T19:31:08.054Z,28.70
2023-06-30T19:33:37.451Z,28.36
2023-06-30T19:36:05.189Z,28.18
2023-06-30T19:38:32.565Z,28.10
2023-06-30T19:41:00.002Z,28.12
2023-06-30T19:43:27.480Z,28.15
2023-06-30T19:45:54.880Z,27.96
2023-06-30T19:48:22.273Z,28.08
2023-06-30T19:50:50.592Z,28.14
2023-06-30T19:53:18.099Z,28.12
2023-06-30T19:55:46.267Z,28.19
2023-06-30T19:58:14.134Z,27.99
2023-06-30T20:00:41.539Z,27.97
2023-06-30T20:03:09.015Z,27.98
2023-06-30T20:05:36.797Z,27.94
2023-06-30T20:08:04.638Z,27.94
2023-06-30T20:10:31.941Z,27.86
2023-06-30T20:12:59.261Z,27.97
2023-06-30T20:15:27.081Z,28.00
2023-06-30T20:17:54.910Z,28.14
2023-06-30T20:20:22.522Z,28.08
2023-06-30T20:22:49.918Z,28.15
2023-06-30T20:25:19.600Z,28.23
2023-06-30T20:27:47.173Z,28.31
2023-06-30T20:30:14.509Z,28.60
2023-06-30T20:32:41.996Z,28.72
2023-06-30T20:35:10.213Z,28.90
2023-06-30T20:37:37.723Z,29.00
2023-06-30T20:40:05.781Z,29.14
2023-06-30T20:42:33.167Z,29.05
2023-06-30T20:45:00.505Z,28.94
2023-06-30T20:47:28.481Z,28.87
2023-06-30T20:49:55.922Z,29.11
2023-06-30T20:52:23.313Z,29.02
2023-06-30T20:54:50.635Z,28.89
2023-06-30T20:57:17.992Z,28.90
2023-06-30T20:59:45.340Z,28.87
2023-06-30T21:02:12.915Z,28.85
2023-06-30T21:04:40.513Z,28.87
2023-06-30T21:07:07.847Z,29.00
2023-06-30T21:09:36.822Z,28.82
2023-06-30T21:12:04.508Z,28.83
2023-06-30T21:14:31.840Z,29.03
2023-06-30T21:16:59.251Z,28.96
2023-06-30T21:19:26.620Z,28.84
2023-06-30T21:21:54.108Z,28.83
2023-06-30T21:24:21.442Z,28.66
2023-06-30T21:26:48.729Z,28.68
2023-06-30T21:29:16.085Z,28.50
2023-06-30T21:31:43.483Z,28.54
2023-06-30T21:34:11.033Z,28.38
2023-06-30T21:36:39.621Z,28.63
2023-06-30T21:39:07.576Z,28.49
2023-06-30T21:41:36.466Z,28.43
2023-06-30T21:44:04.198Z,28.40
2023-06-30T21:46:31.550Z,28.32
2023-06-30T21:48:58.940Z,28.32
2023-06-30T21:51:26.272Z,28.26
2023-06-30T21:53:53.631Z,28.46
2023-06-30T21:56:21.021Z,28.46
2023-06-30T21:58:48.342Z,27.94
2023-06-30T22:01:20.172Z,27.60
2023-06-30T22:03:50.779Z,27.75
2023-06-30T22:06:18.228Z,27.89
2023-06-30T22:08:45.562Z,28.24
2023-06-30T22:11:13.064Z,28.27
2023-06-30T22:13:40.407Z,28.40
2023-06-30T22:16:07.747Z,28.33
2023-06-30T22:18:35.043Z,28.16
2023-06-30T22:21:04.229Z,28.41
2023-06-30T22:23:31.577Z,28.37
2023-06-30T22:25:58.965Z,28.37
2023-06-30T22:28:26.286Z,28.44
2023-06-30T22:30:53.677Z,28.28
2023-06-30T22:33:21.048Z,28.27
2023-06-30T22:35:48.354Z,27.65
2023-06-30T22:38:15.689Z,27.44
2023-06-30T22:40:43.027Z,27.45
2023-06-30T22:43:10.363Z,27.42
2023-06-30T22:45:37.928Z,27.19
2023-06-30T22:48:05.612Z,27.22
2023-06-30T22:50:33.050Z,27.79
2023-06-30T22:53:00.408Z,27.90
2023-06-30T22:55:28.212Z,28.07
2023-06-30T22:57:55.528Z,28.37
2023-06-30T23:00:22.888Z,28.25
2023-06-30T23:02:50.205Z,28.01
2023-06-30T23:05:17.485Z,27.75
2023-06-30T23:07:45.419Z,27.97
2023-06-30T23:10:12.832Z,27.96
2023-06-30T23:12:40.280Z,28.04
2023-06-30T23:15:07.884Z,28.04
2023-06-30T23:17:35.390Z,27.89
2023-06-30T23:20:04.016Z,27.92
2023-06-30T23:22:32.148Z,27.99
2023-06-30T23:25:01.035Z,28.03
2023-06-30T23:27:30.530Z,28.10
2023-06-30T23:29:57.998Z,28.02
2023-06-30T23:32:25.514Z,27.52
2023-06-30T23:34:53.034Z,27.60
2023-06-30T23:37:20.440Z,27.66
2023-06-30T23:39:52.247Z,27.47
2023-06-30T23:42:19.659Z,27.18
2023-06-30T23:44:46.979Z,27.31
2023-06-30T23:47:16.992Z,27.45
2023-06-30T23:49:46.224Z,27.50
2023-06-30T23:52:13.591Z,27.61
2023-06-30T23:54:41.016Z,27.35
2023-06-30T23:57:08.330Z,27.40
2023-06-30T23:59:35.638Z,27.30
